Aérodrome :
LOGIN :

S'inscrire | Disclaimer

   EN    FR    IT 

 










Légende :    VFR   VFR Marginal   IFR   IFR Intensif   IFR Très Intensif
Visi : 
Plafond : 
>= 8 km
>= 3000ft
5 à 8 km
1000 à 3000 ft
1500m à 5 km
500 à 1000 ft
800 à 1500m
200 à 500 ft
< 800m
< 200 ft
Symboles :   Orages  Brouillard  Fortes neiges  Fortes précipitations  Vent > 20 kt
SIGMETs :   Divers  Orages  Givrage  Turbulence  Onde Orograph.  Cendres Volcan.







- Altitude de l'aérodrome : 160 ft
- Code IATA : FMO


EDDG - Münster Osnabrück Int.

DERNIER METAR :
  • 240950Z 24011KT 210V270 9999 BKN018 11/07 Q1016 NOSIG

METARs EXPIRÉS :
  • 240920Z 23010KT 9999 -RA BKN018 11/07 Q1016 NOSIG
  • 240850Z 22010KT 190V250 9999 BKN018 11/06 Q1015 NOSIG
  • 240820Z 21010KT 180V240 9999 -RA BKN018 10/06 Q1015 NOSIG
  • 240750Z 23009KT 9999 -RA BKN018 10/06 Q1015 NOSIG
  • 240720Z 22009KT 190V250 9999 -RA BKN019 10/06 Q1015 NOSIG

TAF TAF EDDG
Valide du 24 à 06h jusqu'au 25 à 06h UTC


240500Z 2406/2506 21012KT 9999 BKN035
TEMPO 2407/2418 23015G25KT SHRA BKN014 SCT025TCU
TEMPO 2418/2506 RA
Pas de NOTAMs connus pour ce terrain.



MET'MAP, la Météo Aéronautique d'un coup d'oeil ! - Copyright ORBIFLY Décembre 2007 - Disclaimer

ORBIFLY MET'MAP TEAM :

Programmation & Développement : Alexandra Zaïnal
Conception & Développement : Baudouin d'Aumeries
Co-Programmation & Développement : Marc-Olivier Méhu
Soutien technique & logistique : Manuel Goepfert

Contact : metmap@orbifly.com




SOURCES & CREDITS :

   NOAA